createdAt,value
2023-12-14T00:01:03.425Z,85.58
2023-12-14T00:03:45.574Z,85.55
2023-12-14T00:06:20.738Z,85.62
2023-12-14T00:08:55.580Z,85.61
2023-12-14T00:11:31.812Z,85.60
2023-12-14T00:14:07.134Z,85.58
2023-12-14T00:16:41.988Z,85.54
2023-12-14T00:19:16.818Z,85.49
2023-12-14T00:21:51.891Z,85.45
2023-12-14T00:24:27.498Z,85.40
2023-12-14T00:27:02.355Z,85.40
2023-12-14T00:29:37.140Z,85.40
2023-12-14T00:32:13.061Z,85.40
2023-12-14T00:34:47.971Z,85.40
2023-12-14T00:37:22.855Z,85.40
2023-12-14T00:39:58.241Z,85.35
2023-12-14T00:42:33.168Z,85.30
2023-12-14T00:45:10.009Z,85.31
2023-12-14T00:47:44.754Z,85.33
2023-12-14T00:50:19.783Z,85.32
2023-12-14T00:52:54.640Z,85.30
2023-12-14T00:55:29.769Z,85.30
2023-12-14T00:58:04.796Z,85.30
2023-12-14T01:00:39.643Z,85.31
2023-12-14T01:03:15.443Z,85.38
2023-12-14T01:05:51.093Z,85.47
2023-12-14T01:08:25.870Z,85.50
2023-12-14T01:11:00.581Z,85.50
2023-12-14T01:13:35.509Z,85.53
2023-12-14T01:16:11.985Z,85.60
2023-12-14T01:18:46.964Z,85.57
2023-12-14T01:21:21.686Z,85.61
2023-12-14T01:23:56.383Z,85.63
2023-12-14T01:26:31.128Z,85.61
2023-12-14T01:29:05.981Z,85.61
2023-12-14T01:31:40.754Z,85.67
2023-12-14T01:34:16.821Z,85.62
2023-12-14T01:36:51.663Z,85.60
2023-12-14T01:39:26.643Z,85.60
2023-12-14T01:42:01.394Z,85.60
2023-12-14T01:44:36.136Z,85.59
2023-12-14T01:47:11.205Z,85.57
2023-12-14T01:49:46.171Z,85.54
2023-12-14T01:52:20.849Z,85.50
2023-12-14T01:54:57.165Z,85.50
2023-12-14T01:57:31.910Z,85.50
2023-12-14T02:00:08.487Z,85.50
2023-12-14T02:02:43.181Z,85.53
2023-12-14T02:05:17.971Z,85.51
2023-12-14T02:07:52.835Z,85.50
2023-12-14T02:10:27.504Z,85.51
2023-12-14T02:13:03.398Z,85.52
2023-12-14T02:15:38.235Z,85.51
2023-12-14T02:18:13.080Z,85.51
2023-12-14T02:20:47.916Z,85.50
2023-12-14T02:23:22.568Z,85.58
2023-12-14T02:25:57.410Z,85.50
2023-12-14T02:28:32.151Z,85.53
2023-12-14T02:31:07.772Z,85.56
2023-12-14T02:33:42.690Z,85.59
2023-12-14T02:36:17.625Z,85.50
2023-12-14T02:38:52.532Z,85.40
2023-12-14T02:41:27.415Z,85.47
2023-12-14T02:44:02.093Z,85.40
2023-12-14T02:46:36.859Z,85.43
2023-12-14T02:49:11.996Z,85.39
2023-12-14T02:51:46.750Z,85.40
2023-12-14T02:54:21.487Z,85.39
2023-12-14T02:56:56.756Z,85.40
2023-12-14T02:59:31.662Z,85.38
2023-12-14T03:02:07.346Z,85.40
2023-12-14T03:04:44.573Z,85.39
2023-12-14T03:07:20.448Z,85.30
2023-12-14T03:09:55.152Z,85.30
2023-12-14T03:12:29.987Z,85.32
2023-12-14T03:15:05.173Z,85.34
2023-12-14T03:17:41.776Z,85.37
2023-12-14T03:20:19.749Z,85.42
2023-12-14T03:22:55.187Z,85.44
2023-12-14T03:25:30.073Z,85.45
2023-12-14T03:28:05.176Z,85.40
2023-12-14T03:30:39.991Z,85.40
2023-12-14T03:33:15.081Z,85.40
2023-12-14T03:35:49.798Z,85.40
2023-12-14T03:38:24.589Z,85.39
2023-12-14T03:40:59.410Z,85.40
2023-12-14T03:43:34.269Z,85.45
2023-12-14T03:46:09.759Z,85.39
2023-12-14T03:48:44.492Z,85.30
2023-12-14T03:51:21.744Z,85.30
2023-12-14T03:53:56.461Z,85.24
2023-12-14T03:56:31.246Z,85.17
2023-12-14T03:59:05.997Z,85.20
2023-12-14T04:01:41.961Z,85.23
2023-12-14T04:04:17.148Z,85.31
2023-12-14T04:06:52.572Z,85.30
2023-12-14T04:09:27.798Z,85.19
2023-12-14T04:12:02.422Z,85.20
2023-12-14T04:14:37.116Z,85.08
2023-12-14T04:17:12.924Z,84.95
2023-12-14T04:19:47.733Z,84.89
2023-12-14T04:22:22.501Z,84.98
2023-12-14T04:24:57.502Z,85.01
2023-12-14T04:27:32.146Z,85.08
2023-12-14T04:30:11.885Z,85.10
2023-12-14T04:32:48.981Z,85.14
2023-12-14T04:35:24.444Z,85.20
2023-12-14T04:37:59.155Z,85.19
2023-12-14T04:40:34.493Z,85.14
2023-12-14T04:43:09.237Z,85.19
2023-12-14T04:45:44.240Z,85.20
2023-12-14T04:48:19.141Z,85.20
2023-12-14T04:50:54.245Z,85.20
2023-12-14T04:53:29.118Z,85.20
2023-12-14T04:56:04.115Z,85.20
2023-12-14T04:58:38.842Z,85.19
2023-12-14T05:01:14.174Z,85.21
2023-12-14T05:03:49.055Z,85.21
2023-12-14T05:06:24.097Z,85.18
2023-12-14T05:09:00.281Z,85.17
2023-12-14T05:11:35.189Z,85.27
2023-12-14T05:14:10.057Z,85.34
2023-12-14T05:16:45.799Z,85.40
2023-12-14T05:19:21.010Z,85.40
2023-12-14T05:21:55.927Z,85.37
2023-12-14T05:24:30.650Z,85.34
2023-12-14T05:27:05.855Z,85.30
2023-12-14T05:29:40.541Z,85.33
2023-12-14T05:32:15.265Z,85.30
2023-12-14T05:34:50.113Z,85.30
2023-12-14T05:37:24.932Z,85.31
2023-12-14T05:39:59.704Z,85.30
2023-12-14T05:42:34.875Z,85.31
2023-12-14T05:45:12.785Z,85.31
2023-12-14T05:47:47.900Z,85.30
2023-12-14T05:50:28.804Z,85.38
2023-12-14T05:53:03.841Z,85.41
2023-12-14T05:55:39.687Z,85.44
2023-12-14T05:58:14.472Z,85.41
2023-12-14T06:00:49.364Z,85.36
2023-12-14T06:03:24.059Z,85.42
2023-12-14T06:05:58.803Z,85.45
2023-12-14T06:08:33.438Z,85.44
2023-12-14T06:11:08.617Z,85.40
2023-12-14T06:13:43.259Z,85.40
2023-12-14T06:16:18.008Z,85.40
2023-12-14T06:18:52.736Z,85.37
2023-12-14T06:21:29.831Z,85.40
2023-12-14T06:24:04.864Z,85.40
2023-12-14T06:26:44.452Z,85.39
2023-12-14T06:29:19.403Z,85.33
2023-12-14T06:31:54.225Z,85.31
2023-12-14T06:34:29.150Z,85.37
2023-12-14T06:37:04.220Z,85.41
2023-12-14T06:39:38.849Z,85.48
2023-12-14T06:42:14.167Z,85.49
2023-12-14T06:44:48.886Z,85.41
2023-12-14T06:47:23.588Z,85.43
2023-12-14T06:49:59.088Z,85.40
2023-12-14T06:52:36.686Z,85.40
2023-12-14T06:55:15.802Z,85.35
2023-12-14T06:57:50.476Z,85.33
2023-12-14T07:00:25.948Z,85.31
2023-12-14T07:03:00.956Z,85.30
2023-12-14T07:05:36.231Z,85.27
2023-12-14T07:08:11.166Z,85.26
2023-12-14T07:10:48.273Z,85.20
2023-12-14T07:13:23.308Z,85.20
2023-12-14T07:15:58.634Z,85.20
2023-12-14T07:18:33.743Z,85.19
2023-12-14T07:21:10.540Z,85.20
2023-12-14T07:23:45.578Z,85.20
2023-12-14T07:26:20.796Z,85.16
2023-12-14T07:28:56.216Z,85.10
2023-12-14T07:31:31.340Z,85.03
2023-12-14T07:34:06.025Z,85.01
2023-12-14T07:36:40.713Z,85.04
2023-12-14T07:39:15.393Z,85.02
2023-12-14T07:41:50.366Z,84.96
2023-12-14T07:44:26.449Z,84.96
2023-12-14T07:47:03.498Z,85.00
2023-12-14T07:49:38.767Z,85.00
2023-12-14T07:52:15.023Z,84.93
2023-12-14T07:54:49.788Z,84.88
2023-12-14T07:57:25.090Z,84.80
2023-12-14T07:59:59.730Z,84.74
2023-12-14T08:02:34.643Z,84.73
2023-12-14T08:05:10.855Z,84.79
2023-12-14T08:07:45.652Z,84.66
2023-12-14T08:10:21.385Z,84.59
2023-12-14T08:12:56.198Z,84.50
2023-12-14T08:15:31.260Z,84.47
2023-12-14T08:18:06.638Z,84.44
2023-12-14T08:20:41.698Z,84.40
2023-12-14T08:23:16.468Z,84.38
2023-12-14T08:25:51.601Z,84.34
2023-12-14T08:28:26.468Z,84.27
2023-12-14T08:31:03.486Z,84.29
2023-12-14T08:33:38.342Z,84.34
2023-12-14T08:36:17.788Z,84.34
2023-12-14T08:38:52.744Z,84.33
2023-12-14T08:41:27.617Z,84.23
2023-12-14T08:44:02.412Z,84.20
2023-12-14T08:46:46.708Z,84.20
2023-12-14T08:49:21.500Z,84.15
2023-12-14T08:51:56.755Z,84.03
2023-12-14T08:54:31.555Z,83.95
2023-12-14T08:57:07.267Z,83.95
2023-12-14T08:59:44.467Z,84.02
2023-12-14T09:02:20.066Z,83.93
2023-12-14T09:04:55.459Z,83.80
2023-12-14T09:07:30.380Z,83.70
2023-12-14T09:10:05.725Z,83.60
2023-12-14T09:12:40.482Z,83.58
2023-12-14T09:15:16.869Z,83.42
2023-12-14T09:17:51.777Z,83.40
2023-12-14T09:20:28.174Z,83.47
2023-12-14T09:23:04.887Z,83.37
2023-12-14T09:25:40.914Z,83.40
2023-12-14T09:28:16.255Z,83.32
2023-12-14T09:30:51.450Z,83.29
2023-12-14T09:33:26.501Z,83.29
2023-12-14T09:36:01.490Z,83.30
2023-12-14T09:38:37.248Z,83.30
2023-12-14T09:41:12.071Z,83.22
2023-12-14T09:43:47.568Z,83.17
2023-12-14T09:46:23.208Z,83.15
2023-12-14T09:49:00.101Z,83.19
2023-12-14T09:51:35.036Z,83.28
2023-12-14T09:54:10.018Z,83.37
2023-12-14T09:56:53.975Z,83.30
2023-12-14T09:59:28.683Z,83.24
2023-12-14T10:02:15.088Z,83.18
2023-12-14T10:04:50.642Z,82.77
2023-12-14T10:07:26.711Z,82.87
2023-12-14T10:10:15.525Z,82.72
2023-12-14T10:13:00.222Z,82.80
2023-12-14T10:15:44.863Z,82.79
2023-12-14T10:18:27.023Z,82.46
2023-12-14T10:21:01.835Z,82.24
2023-12-14T10:23:37.933Z,82.26
2023-12-14T10:26:12.605Z,82.31
2023-12-14T10:28:47.422Z,82.30
2023-12-14T10:31:22.555Z,82.31
2023-12-14T10:33:57.896Z,82.36
2023-12-14T10:36:33.268Z,82.31
2023-12-14T10:39:10.570Z,82.34
2023-12-14T10:41:46.174Z,82.52
2023-12-14T10:44:33.666Z,82.52
2023-12-14T10:47:18.006Z,82.44
2023-12-14T10:49:54.194Z,82.36
2023-12-14T10:52:29.705Z,82.37
2023-12-14T10:55:10.024Z,82.30
2023-12-14T10:57:45.828Z,82.30
2023-12-14T11:00:22.929Z,82.30
2023-12-14T11:03:00.910Z,82.34
2023-12-14T11:05:37.893Z,82.37
2023-12-14T11:08:13.760Z,82.37
2023-12-14T11:10:57.532Z,82.39
2023-12-14T11:13:35.314Z,82.39
2023-12-14T11:16:11.959Z,82.40
2023-12-14T11:18:47.758Z,82.41
2023-12-14T11:21:27.296Z,82.29
2023-12-14T11:24:07.667Z,82.27
2023-12-14T11:26:43.755Z,82.19
2023-12-14T11:29:20.385Z,82.09
2023-12-14T11:31:55.584Z,82.04
2023-12-14T11:34:31.250Z,82.02
2023-12-14T11:37:07.379Z,82.16
2023-12-14T11:39:42.507Z,82.10
2023-12-14T11:42:20.600Z,82.19
2023-12-14T11:44:55.371Z,82.21
2023-12-14T11:47:30.574Z,82.20
2023-12-14T11:50:05.917Z,82.17
2023-12-14T11:52:41.588Z,82.22
2023-12-14T11:55:18.198Z,82.19
2023-12-14T11:57:54.021Z,82.08
2023-12-14T12:00:31.939Z,82.00
2023-12-14T12:03:18.541Z,82.09
2023-12-14T12:05:55.033Z,82.16
2023-12-14T12:08:30.000Z,82.10
2023-12-14T12:11:05.145Z,82.12
2023-12-14T12:13:39.950Z,82.10
2023-12-14T12:16:17.452Z,82.21
2023-12-14T12:18:53.395Z,82.29
2023-12-14T12:21:28.417Z,82.23
2023-12-14T12:24:09.328Z,82.17
2023-12-14T12:26:49.419Z,82.22
2023-12-14T12:29:24.197Z,82.29
2023-12-14T12:31:59.017Z,82.23
2023-12-14T12:34:33.769Z,82.33
2023-12-14T12:37:09.038Z,82.33
2023-12-14T12:39:47.290Z,82.36
2023-12-14T12:42:26.535Z,82.42
2023-12-14T12:45:01.859Z,82.48
2023-12-14T12:47:36.791Z,82.51
2023-12-14T12:50:14.187Z,82.41
2023-12-14T12:52:50.764Z,82.42
2023-12-14T12:55:26.146Z,82.35
2023-12-14T12:58:06.015Z,82.42
2023-12-14T13:00:40.795Z,82.52
2023-12-14T13:03:15.837Z,82.50
2023-12-14T13:05:50.811Z,82.42
2023-12-14T13:08:25.902Z,82.45
2023-12-14T13:11:01.349Z,82.51
2023-12-14T13:13:36.123Z,82.50
2023-12-14T13:16:11.817Z,82.51
2023-12-14T13:18:47.357Z,82.50
2023-12-14T13:21:23.487Z,82.44
2023-12-14T13:23:59.251Z,82.44
2023-12-14T13:26:34.655Z,82.49
2023-12-14T13:29:09.428Z,82.51
2023-12-14T13:31:44.415Z,82.58
2023-12-14T13:34:19.618Z,82.60
2023-12-14T13:36:54.462Z,82.60
2023-12-14T13:39:29.293Z,82.63
2023-12-14T13:42:04.672Z,82.70
2023-12-14T13:44:39.433Z,82.77
2023-12-14T13:47:14.541Z,82.78
2023-12-14T13:49:50.310Z,82.74
2023-12-14T13:52:25.946Z,82.70
2023-12-14T13:55:01.914Z,82.70
2023-12-14T13:57:36.843Z,82.70
2023-12-14T14:00:15.129Z,82.68
2023-12-14T14:02:50.374Z,82.60
2023-12-14T14:05:25.824Z,82.61
2023-12-14T14:08:01.459Z,82.70
2023-12-14T14:10:36.296Z,82.71
2023-12-14T14:13:11.028Z,82.70
2023-12-14T14:15:45.962Z,82.70
2023-12-14T14:18:21.179Z,82.70
2023-12-14T14:20:56.200Z,82.74
2023-12-14T14:23:32.449Z,82.79
2023-12-14T14:26:08.313Z,82.83
2023-12-14T14:28:43.268Z,82.90
2023-12-14T14:31:18.182Z,82.90
2023-12-14T14:33:53.879Z,82.96
2023-12-14T14:36:28.949Z,83.01
2023-12-14T14:39:05.953Z,83.08
2023-12-14T14:41:40.890Z,83.10
2023-12-14T14:44:15.800Z,83.14
2023-12-14T14:46:50.602Z,83.20
2023-12-14T14:49:25.358Z,83.21
2023-12-14T14:52:00.330Z,83.30
2023-12-14T14:54:35.461Z,83.37
2023-12-14T14:57:11.070Z,83.43
2023-12-14T14:59:45.944Z,83.48
2023-12-14T15:02:20.840Z,83.51
2023-12-14T15:04:55.875Z,83.57
2023-12-14T15:07:31.667Z,83.60
2023-12-14T15:10:07.738Z,83.69
2023-12-14T15:12:42.418Z,83.70
2023-12-14T15:15:17.998Z,83.79
2023-12-14T15:17:53.012Z,83.81
2023-12-14T15:20:28.337Z,83.81
2023-12-14T15:23:06.556Z,83.79
2023-12-14T15:25:41.861Z,83.80
2023-12-14T15:28:16.800Z,83.80
2023-12-14T15:30:51.885Z,83.89
2023-12-14T15:33:27.228Z,83.90
2023-12-14T15:36:02.518Z,83.90
2023-12-14T15:38:37.181Z,83.89
2023-12-14T15:41:12.608Z,83.95
2023-12-14T15:43:47.395Z,84.00
2023-12-14T15:46:22.518Z,83.98
2023-12-14T15:48:57.281Z,83.93
2023-12-14T15:51:32.174Z,83.95
2023-12-14T15:54:07.358Z,84.01
2023-12-14T15:56:42.016Z,83.92
2023-12-14T15:59:18.142Z,83.98
2023-12-14T16:01:53.328Z,84.00
2023-12-14T16:04:28.078Z,84.00
2023-12-14T16:07:03.169Z,84.09
2023-12-14T16:09:38.077Z,84.10
2023-12-14T16:12:13.138Z,84.06
2023-12-14T16:14:48.042Z,84.01
2023-12-14T16:17:23.040Z,84.07
2023-12-14T16:19:57.968Z,84.10
2023-12-14T16:22:33.000Z,84.13
2023-12-14T16:25:11.142Z,84.19
2023-12-14T16:27:47.646Z,84.23
2023-12-14T16:30:22.389Z,84.20
2023-12-14T16:32:57.800Z,84.21
2023-12-14T16:35:33.601Z,84.30
2023-12-14T16:38:08.408Z,84.34
2023-12-14T16:40:43.387Z,84.30
2023-12-14T16:43:20.193Z,84.31
2023-12-14T16:45:55.373Z,84.39
2023-12-14T16:48:30.197Z,84.38
2023-12-14T16:51:08.120Z,84.40
2023-12-14T16:53:43.501Z,84.40
2023-12-14T16:56:20.148Z,84.40
2023-12-14T16:58:55.202Z,84.40
2023-12-14T17:01:30.641Z,84.41
2023-12-14T17:04:05.693Z,84.41
2023-12-14T17:06:43.078Z,84.41
2023-12-14T17:09:20.615Z,84.43
2023-12-14T17:11:55.845Z,84.45
2023-12-14T17:14:31.503Z,84.46
2023-12-14T17:17:07.043Z,84.45
2023-12-14T17:19:42.347Z,84.40
2023-12-14T17:22:18.342Z,84.40
2023-12-14T17:24:54.192Z,84.42
2023-12-14T17:27:30.161Z,84.40
2023-12-14T17:30:05.296Z,84.42
2023-12-14T17:32:40.716Z,84.42
2023-12-14T17:35:16.120Z,84.44
2023-12-14T17:37:51.129Z,84.47
2023-12-14T17:40:26.950Z,84.49
2023-12-14T17:43:02.256Z,84.53
2023-12-14T17:45:40.285Z,84.54
2023-12-14T17:48:16.688Z,84.50
2023-12-14T17:50:51.813Z,84.51
2023-12-14T17:53:27.134Z,84.50
2023-12-14T17:56:02.720Z,84.50
2023-12-14T17:58:37.459Z,84.50
2023-12-14T18:01:12.656Z,84.50
2023-12-14T18:03:47.615Z,84.52
2023-12-14T18:06:24.794Z,84.54
2023-12-14T18:09:00.311Z,84.60
2023-12-14T18:11:35.335Z,84.60
2023-12-14T18:14:10.502Z,84.64
2023-12-14T18:16:45.906Z,84.67
2023-12-14T18:19:21.302Z,84.69
2023-12-14T18:21:56.407Z,84.67
2023-12-14T18:24:31.464Z,84.66
2023-12-14T18:27:07.237Z,84.70
2023-12-14T18:29:44.062Z,84.71
2023-12-14T18:32:19.211Z,84.70
2023-12-14T18:34:54.497Z,84.71
2023-12-14T18:37:30.163Z,84.72
2023-12-14T18:40:05.994Z,84.72
2023-12-14T18:42:41.140Z,84.79
2023-12-14T18:45:16.860Z,84.78
2023-12-14T18:47:54.382Z,84.79
2023-12-14T18:50:31.004Z,84.77
2023-12-14T18:53:10.358Z,84.75
2023-12-14T18:55:45.720Z,84.76
2023-12-14T18:58:21.074Z,84.78
2023-12-14T19:00:57.430Z,84.76
2023-12-14T19:03:32.616Z,84.79
2023-12-14T19:06:11.524Z,84.71
2023-12-14T19:08:47.138Z,84.70
2023-12-14T19:11:24.722Z,84.67
2023-12-14T19:13:59.931Z,84.64
2023-12-14T19:16:40.889Z,84.60
2023-12-14T19:19:18.836Z,84.52
2023-12-14T19:21:55.975Z,84.47
2023-12-14T19:24:31.213Z,84.39
2023-12-14T19:27:09.600Z,84.40
2023-12-14T19:29:45.707Z,84.38
2023-12-14T19:32:21.431Z,84.37
2023-12-14T19:34:57.765Z,84.36
2023-12-14T19:37:34.305Z,84.32
2023-12-14T19:40:14.956Z,84.38
2023-12-14T19:42:50.901Z,84.34
2023-12-14T19:45:26.678Z,84.27
2023-12-14T19:48:03.447Z,84.20
2023-12-14T19:50:39.201Z,84.20
2023-12-14T19:53:17.664Z,84.18
2023-12-14T19:55:53.299Z,84.13
2023-12-14T19:58:28.928Z,84.09
2023-12-14T20:01:11.793Z,84.09
2023-12-14T20:03:48.470Z,84.05
2023-12-14T20:06:27.744Z,84.08
2023-12-14T20:09:04.663Z,84.10
2023-12-14T20:11:43.494Z,84.14
2023-12-14T20:14:20.087Z,84.10
2023-12-14T20:16:55.256Z,84.11
2023-12-14T20:19:30.543Z,84.10
2023-12-14T20:22:06.609Z,84.13
2023-12-14T20:24:43.905Z,84.14
2023-12-14T20:27:20.054Z,84.13
2023-12-14T20:29:55.781Z,84.10
2023-12-14T20:32:30.937Z,84.10
2023-12-14T20:35:06.781Z,84.10
2023-12-14T20:37:42.342Z,84.10
2023-12-14T20:40:20.014Z,84.10
2023-12-14T20:42:56.676Z,84.10
2023-12-14T20:45:34.057Z,84.07
2023-12-14T20:48:10.465Z,83.95
2023-12-14T20:50:45.562Z,83.88
2023-12-14T20:53:20.924Z,83.75
2023-12-14T20:55:56.493Z,83.78
2023-12-14T20:58:31.725Z,83.77
2023-12-14T21:01:07.500Z,83.69
2023-12-14T21:03:44.884Z,83.70
2023-12-14T21:06:22.313Z,83.70
2023-12-14T21:08:59.192Z,83.68
2023-12-14T21:11:34.127Z,83.66
2023-12-14T21:14:13.321Z,83.69
2023-12-14T21:16:51.936Z,83.75
2023-12-14T21:19:26.982Z,83.70
2023-12-14T21:22:01.785Z,83.57
2023-12-14T21:24:41.804Z,83.55
2023-12-14T21:27:34.896Z,83.60
2023-12-14T21:30:12.970Z,83.57
2023-12-14T21:32:49.673Z,83.59
2023-12-14T21:35:24.708Z,83.60
2023-12-14T21:37:59.590Z,83.69
2023-12-14T21:40:34.526Z,83.70
2023-12-14T21:43:09.252Z,83.70
2023-12-14T21:45:44.357Z,83.70
2023-12-14T21:48:19.416Z,83.76
2023-12-14T21:50:54.635Z,83.79
2023-12-14T21:53:29.728Z,83.80
2023-12-14T21:56:04.666Z,83.70
2023-12-14T21:58:39.433Z,83.71
2023-12-14T22:01:15.080Z,83.63
2023-12-14T22:03:49.816Z,83.54
2023-12-14T22:06:24.838Z,83.44
2023-12-14T22:08:59.645Z,83.25
2023-12-14T22:11:34.359Z,83.20
2023-12-14T22:14:09.757Z,83.16
2023-12-14T22:16:44.927Z,82.95
2023-12-14T22:19:20.127Z,82.87
2023-12-14T22:21:55.119Z,82.94
2023-12-14T22:24:29.959Z,82.97
2023-12-14T22:27:04.981Z,82.92
2023-12-14T22:29:40.016Z,82.90
2023-12-14T22:32:14.836Z,82.91
2023-12-14T22:34:49.653Z,82.99
2023-12-14T22:37:24.459Z,83.00
2023-12-14T22:39:59.137Z,83.02
2023-12-14T22:42:33.876Z,83.02
2023-12-14T22:45:10.537Z,83.08
2023-12-14T22:47:45.473Z,83.14
2023-12-14T22:50:20.632Z,83.20
2023-12-14T22:52:55.619Z,83.21
2023-12-14T22:55:30.311Z,83.18
2023-12-14T22:58:05.079Z,83.20
2023-12-14T23:00:40.165Z,83.21
2023-12-14T23:03:15.393Z,83.14
2023-12-14T23:05:50.335Z,83.20
2023-12-14T23:08:25.402Z,83.30
2023-12-14T23:11:00.419Z,83.30
2023-12-14T23:13:35.374Z,83.30
2023-12-14T23:16:11.812Z,83.30
2023-12-14T23:18:46.694Z,83.30
2023-12-14T23:21:21.709Z,83.30
2023-12-14T23:23:56.505Z,83.30
2023-12-14T23:26:31.497Z,83.31
2023-12-14T23:29:06.513Z,83.35
2023-12-14T23:31:41.451Z,83.40
2023-12-14T23:34:16.347Z,83.40
2023-12-14T23:36:51.799Z,83.40
2023-12-14T23:39:26.644Z,83.44
2023-12-14T23:42:01.627Z,83.47
2023-12-14T23:44:36.848Z,83.50
2023-12-14T23:47:12.754Z,83.58
2023-12-14T23:49:48.002Z,83.60
2023-12-14T23:52:23.058Z,83.63
2023-12-14T23:54:58.022Z,83.66
2023-12-14T23:57:33.398Z,83.59
